sensor_id;sensor_type;location;lat;lon;timestamp;P1;durP1;ratioP1;P2;durP2;ratioP2
13255;SDS011;37913;48.370;10.930;2023-05-13T00:01:59;77.38;;;33.90;;
13255;SDS011;37913;48.370;10.930;2023-05-13T00:04:26;83.50;;;35.00;;
13255;SDS011;37913;48.370;10.930;2023-05-13T00:06:53;74.90;;;33.58;;
13255;SDS011;37913;48.370;10.930;2023-05-13T00:09:21;79.10;;;34.33;;
13255;SDS011;37913;48.370;10.930;2023-05-13T00:11:48;77.53;;;33.85;;
13255;SDS011;37913;48.370;10.930;2023-05-13T00:14:15;81.50;;;34.97;;
13255;SDS011;37913;48.370;10.930;2023-05-13T00:16:42;81.07;;;34.55;;
13255;SDS011;37913;48.370;10.930;2023-05-13T00:19:09;83.40;;;35.35;;
13255;SDS011;37913;48.370;10.930;2023-05-13T00:21:36;84.30;;;35.22;;
13255;SDS011;37913;48.370;10.930;2023-05-13T00:24:03;83.72;;;35.33;;
13255;SDS011;37913;48.370;10.930;2023-05-13T00:26:32;85.95;;;35.83;;
13255;SDS011;37913;48.370;10.930;2023-05-13T00:28:59;83.50;;;35.20;;
13255;SDS011;37913;48.370;10.930;2023-05-13T00:31:26;80.85;;;34.55;;
13255;SDS011;37913;48.370;10.930;2023-05-13T00:33:53;86.28;;;35.63;;
13255;SDS011;37913;48.370;10.930;2023-05-13T00:36:20;86.78;;;35.85;;
13255;SDS011;37913;48.370;10.930;2023-05-13T00:38:47;244.75;;;66.03;;
13255;SDS011;37913;48.370;10.930;2023-05-13T00:41:13;84.00;;;35.17;;
13255;SDS011;37913;48.370;10.930;2023-05-13T00:43:42;98.60;;;37.95;;
13255;SDS011;37913;48.370;10.930;2023-05-13T00:46:09;90.40;;;36.42;;
13255;SDS011;37913;48.370;10.930;2023-05-13T00:48:36;89.82;;;36.42;;
13255;SDS011;37913;48.370;10.930;2023-05-13T00:51:03;88.95;;;36.10;;
13255;SDS011;37913;48.370;10.930;2023-05-13T00:53:30;89.18;;;36.60;;
13255;SDS011;37913;48.370;10.930;2023-05-13T00:55:58;81.40;;;34.70;;
13255;SDS011;37913;48.370;10.930;2023-05-13T00:58:25;96.72;;;37.88;;
13255;SDS011;37913;48.370;10.930;2023-05-13T01:00:57;80.18;;;34.45;;
13255;SDS011;37913;48.370;10.930;2023-05-13T01:03:32;71.65;;;32.67;;
13255;SDS011;37913;48.370;10.930;2023-05-13T01:06:12;81.47;;;34.60;;
13255;SDS011;37913;48.370;10.930;2023-05-13T01:08:42;86.57;;;35.40;;
13255;SDS011;37913;48.370;10.930;2023-05-13T01:11:19;86.30;;;35.80;;
13255;SDS011;37913;48.370;10.930;2023-05-13T01:13:50;84.03;;;34.95;;
13255;SDS011;37913;48.370;10.930;2023-05-13T01:16:28;84.97;;;35.20;;
13255;SDS011;37913;48.370;10.930;2023-05-13T01:19:00;84.88;;;35.22;;
13255;SDS011;37913;48.370;10.930;2023-05-13T01:21:38;81.13;;;34.65;;
13255;SDS011;37913;48.370;10.930;2023-05-13T01:24:06;76.03;;;33.63;;
13255;SDS011;37913;48.370;10.930;2023-05-13T01:26:33;75.63;;;33.35;;
13255;SDS011;37913;48.370;10.930;2023-05-13T01:29:00;77.28;;;33.47;;
13255;SDS011;37913;48.370;10.930;2023-05-13T01:31:27;73.32;;;33.05;;
13255;SDS011;37913;48.370;10.930;2023-05-13T01:33:55;76.72;;;33.38;;
13255;SDS011;37913;48.370;10.930;2023-05-13T01:36:23;75.85;;;33.28;;
13255;SDS011;37913;48.370;10.930;2023-05-13T01:38:51;83.22;;;34.92;;
13255;SDS011;37913;48.370;10.930;2023-05-13T01:41:21;81.80;;;34.78;;
13255;SDS011;37913;48.370;10.930;2023-05-13T01:43:47;85.35;;;35.10;;
13255;SDS011;37913;48.370;10.930;2023-05-13T01:46:14;75.15;;;33.03;;
13255;SDS011;37913;48.370;10.930;2023-05-13T01:48:41;74.30;;;33.28;;
13255;SDS011;37913;48.370;10.930;2023-05-13T01:51:08;80.40;;;34.03;;
13255;SDS011;37913;48.370;10.930;2023-05-13T01:53:35;79.72;;;33.90;;
13255;SDS011;37913;48.370;10.930;2023-05-13T01:56:07;79.70;;;34.15;;
13255;SDS011;37913;48.370;10.930;2023-05-13T01:58:34;77.63;;;33.55;;
13255;SDS011;37913;48.370;10.930;2023-05-13T02:01:01;79.60;;;33.97;;
13255;SDS011;37913;48.370;10.930;2023-05-13T02:03:28;81.47;;;34.63;;
13255;SDS011;37913;48.370;10.930;2023-05-13T02:05:55;84.60;;;35.15;;
13255;SDS011;37913;48.370;10.930;2023-05-13T02:08:22;85.30;;;35.47;;
13255;SDS011;37913;48.370;10.930;2023-05-13T02:10:53;86.30;;;35.83;;
13255;SDS011;37913;48.370;10.930;2023-05-13T02:13:22;86.07;;;35.97;;
13255;SDS011;37913;48.370;10.930;2023-05-13T02:15:50;83.05;;;34.58;;
13255;SDS011;37913;48.370;10.930;2023-05-13T02:18:17;78.95;;;33.95;;
13255;SDS011;37913;48.370;10.930;2023-05-13T02:20:44;83.43;;;34.83;;
13255;SDS011;37913;48.370;10.930;2023-05-13T02:23:11;91.80;;;36.53;;
13255;SDS011;37913;48.370;10.930;2023-05-13T02:25:39;84.65;;;35.13;;
13255;SDS011;37913;48.370;10.930;2023-05-13T02:28:06;81.45;;;34.63;;
13255;SDS011;37913;48.370;10.930;2023-05-13T02:30:34;85.93;;;35.65;;
13255;SDS011;37913;48.370;10.930;2023-05-13T02:33:01;85.03;;;35.58;;
13255;SDS011;37913;48.370;10.930;2023-05-13T02:35:28;87.78;;;36.00;;
13255;SDS011;37913;48.370;10.930;2023-05-13T02:37:55;78.72;;;34.28;;
13255;SDS011;37913;48.370;10.930;2023-05-13T02:40:23;87.20;;;35.55;;
13255;SDS011;37913;48.370;10.930;2023-05-13T02:42:50;86.82;;;35.58;;
13255;SDS011;37913;48.370;10.930;2023-05-13T02:45:17;84.47;;;35.40;;
13255;SDS011;37913;48.370;10.930;2023-05-13T02:47:46;82.72;;;34.95;;
13255;SDS011;37913;48.370;10.930;2023-05-13T02:50:12;84.30;;;35.08;;
13255;SDS011;37913;48.370;10.930;2023-05-13T02:52:39;83.15;;;34.95;;
13255;SDS011;37913;48.370;10.930;2023-05-13T02:55:07;85.07;;;35.13;;
13255;SDS011;37913;48.370;10.930;2023-05-13T02:57:34;79.50;;;34.13;;
13255;SDS011;37913;48.370;10.930;2023-05-13T03:00:03;83.93;;;35.00;;
13255;SDS011;37913;48.370;10.930;2023-05-13T03:02:31;81.55;;;34.28;;
13255;SDS011;37913;48.370;10.930;2023-05-13T03:05:00;80.20;;;34.10;;
13255;SDS011;37913;48.370;10.930;2023-05-13T03:07:27;78.35;;;33.60;;
13255;SDS011;37913;48.370;10.930;2023-05-13T03:09:54;81.95;;;34.67;;
13255;SDS011;37913;48.370;10.930;2023-05-13T03:12:21;82.95;;;34.78;;
13255;SDS011;37913;48.370;10.930;2023-05-13T03:14:48;98.68;;;37.22;;
13255;SDS011;37913;48.370;10.930;2023-05-13T03:17:15;85.20;;;34.95;;
13255;SDS011;37913;48.370;10.930;2023-05-13T03:19:42;80.15;;;34.05;;
13255;SDS011;37913;48.370;10.930;2023-05-13T03:22:10;79.90;;;34.13;;
13255;SDS011;37913;48.370;10.930;2023-05-13T03:24:37;81.70;;;34.45;;
13255;SDS011;37913;48.370;10.930;2023-05-13T03:27:04;82.47;;;34.45;;
13255;SDS011;37913;48.370;10.930;2023-05-13T03:29:31;79.32;;;33.88;;
13255;SDS011;37913;48.370;10.930;2023-05-13T03:31:58;74.63;;;33.00;;
13255;SDS011;37913;48.370;10.930;2023-05-13T03:34:24;80.07;;;34.05;;
13255;SDS011;37913;48.370;10.930;2023-05-13T03:36:51;83.65;;;35.17;;
13255;SDS011;37913;48.370;10.930;2023-05-13T03:39:20;85.65;;;35.28;;
13255;SDS011;37913;48.370;10.930;2023-05-13T03:41:47;82.32;;;34.75;;
13255;SDS011;37913;48.370;10.930;2023-05-13T03:44:14;90.22;;;36.28;;
13255;SDS011;37913;48.370;10.930;2023-05-13T03:46:40;85.88;;;35.53;;
13255;SDS011;37913;48.370;10.930;2023-05-13T03:49:07;85.15;;;35.08;;
13255;SDS011;37913;48.370;10.930;2023-05-13T03:51:34;88.82;;;36.00;;
13255;SDS011;37913;48.370;10.930;2023-05-13T03:54:01;82.57;;;34.85;;
13255;SDS011;37913;48.370;10.930;2023-05-13T03:56:30;85.57;;;35.42;;
13255;SDS011;37913;48.370;10.930;2023-05-13T03:58:57;85.13;;;34.80;;
13255;SDS011;37913;48.370;10.930;2023-05-13T04:01:24;90.88;;;36.20;;
13255;SDS011;37913;48.370;10.930;2023-05-13T04:03:51;87.20;;;35.67;;
13255;SDS011;37913;48.370;10.930;2023-05-13T04:06:18;89.60;;;35.65;;
13255;SDS011;37913;48.370;10.930;2023-05-13T04:08:45;90.00;;;35.95;;
13255;SDS011;37913;48.370;10.930;2023-05-13T04:11:14;80.75;;;34.15;;
13255;SDS011;37913;48.370;10.930;2023-05-13T04:13:42;78.82;;;33.75;;
13255;SDS011;37913;48.370;10.930;2023-05-13T04:16:10;103.88;;;39.15;;
13255;SDS011;37913;48.370;10.930;2023-05-13T04:18:36;82.68;;;34.35;;
13255;SDS011;37913;48.370;10.930;2023-05-13T04:21:06;82.20;;;34.30;;
13255;SDS011;37913;48.370;10.930;2023-05-13T04:23:33;88.75;;;35.58;;
13255;SDS011;37913;48.370;10.930;2023-05-13T04:26:00;92.03;;;36.65;;
13255;SDS011;37913;48.370;10.930;2023-05-13T04:28:27;81.00;;;34.05;;
13255;SDS011;37913;48.370;10.930;2023-05-13T04:30:56;82.80;;;34.25;;
13255;SDS011;37913;48.370;10.930;2023-05-13T04:33:24;81.80;;;34.13;;
13255;SDS011;37913;48.370;10.930;2023-05-13T04:35:51;77.97;;;33.45;;
13255;SDS011;37913;48.370;10.930;2023-05-13T04:38:18;88.47;;;35.58;;
13255;SDS011;37913;48.370;10.930;2023-05-13T04:40:45;81.60;;;34.35;;
13255;SDS011;37913;48.370;10.930;2023-05-13T04:43:12;90.28;;;36.05;;
13255;SDS011;37913;48.370;10.930;2023-05-13T04:45:39;80.95;;;34.83;;
13255;SDS011;37913;48.370;10.930;2023-05-13T04:48:07;90.70;;;36.67;;
13255;SDS011;37913;48.370;10.930;2023-05-13T04:50:34;78.03;;;33.63;;
13255;SDS011;37913;48.370;10.930;2023-05-13T04:53:01;77.10;;;33.38;;
13255;SDS011;37913;48.370;10.930;2023-05-13T04:55:28;73.15;;;32.65;;
13255;SDS011;37913;48.370;10.930;2023-05-13T04:57:55;77.88;;;33.63;;
13255;SDS011;37913;48.370;10.930;2023-05-13T05:00:22;78.05;;;33.75;;
13255;SDS011;37913;48.370;10.930;2023-05-13T05:02:49;70.22;;;32.22;;
13255;SDS011;37913;48.370;10.930;2023-05-13T05:05:18;91.78;;;36.50;;
13255;SDS011;37913;48.370;10.930;2023-05-13T05:07:45;81.38;;;36.92;;
13255;SDS011;37913;48.370;10.930;2023-05-13T05:10:12;86.63;;;35.50;;
13255;SDS011;37913;48.370;10.930;2023-05-13T05:12:39;84.18;;;34.83;;
13255;SDS011;37913;48.370;10.930;2023-05-13T05:15:07;90.93;;;36.00;;
13255;SDS011;37913;48.370;10.930;2023-05-13T05:17:39;80.68;;;33.92;;
13255;SDS011;37913;48.370;10.930;2023-05-13T05:20:07;75.65;;;33.20;;
13255;SDS011;37913;48.370;10.930;2023-05-13T05:22:36;81.00;;;34.30;;
13255;SDS011;37913;48.370;10.930;2023-05-13T05:25:06;84.43;;;40.97;;
13255;SDS011;37913;48.370;10.930;2023-05-13T05:27:33;81.65;;;35.80;;
13255;SDS011;37913;48.370;10.930;2023-05-13T05:30:00;64.85;;;31.10;;
13255;SDS011;37913;48.370;10.930;2023-05-13T05:32:27;64.50;;;33.30;;
13255;SDS011;37913;48.370;10.930;2023-05-13T05:34:54;88.47;;;35.10;;
13255;SDS011;37913;48.370;10.930;2023-05-13T05:37:21;89.82;;;37.42;;
13255;SDS011;37913;48.370;10.930;2023-05-13T05:39:50;83.93;;;36.58;;
13255;SDS011;37913;48.370;10.930;2023-05-13T05:42:16;78.15;;;35.03;;
13255;SDS011;37913;48.370;10.930;2023-05-13T05:44:43;85.28;;;34.70;;
13255;SDS011;37913;48.370;10.930;2023-05-13T05:47:11;81.25;;;37.25;;
13255;SDS011;37913;48.370;10.930;2023-05-13T05:49:38;86.30;;;41.55;;
13255;SDS011;37913;48.370;10.930;2023-05-13T05:52:05;81.68;;;38.08;;
13255;SDS011;37913;48.370;10.930;2023-05-13T05:54:35;88.55;;;35.90;;
13255;SDS011;37913;48.370;10.930;2023-05-13T05:57:03;80.43;;;37.05;;
13255;SDS011;37913;48.370;10.930;2023-05-13T05:59:30;86.90;;;37.63;;
13255;SDS011;37913;48.370;10.930;2023-05-13T06:01:57;85.75;;;37.30;;
13255;SDS011;37913;48.370;10.930;2023-05-13T06:04:24;82.78;;;37.17;;
13255;SDS011;37913;48.370;10.930;2023-05-13T06:06:51;88.03;;;41.03;;
13255;SDS011;37913;48.370;10.930;2023-05-13T06:09:18;96.63;;;40.90;;
13255;SDS011;37913;48.370;10.930;2023-05-13T06:11:45;84.88;;;36.53;;
13255;SDS011;37913;48.370;10.930;2023-05-13T06:14:13;79.65;;;34.85;;
13255;SDS011;37913;48.370;10.930;2023-05-13T06:16:41;80.80;;;34.08;;
13255;SDS011;37913;48.370;10.930;2023-05-13T06:19:08;83.88;;;34.95;;
13255;SDS011;37913;48.370;10.930;2023-05-13T06:21:35;79.05;;;34.00;;
13255;SDS011;37913;48.370;10.930;2023-05-13T06:24:02;94.47;;;36.60;;
13255;SDS011;37913;48.370;10.930;2023-05-13T06:26:29;81.93;;;34.53;;
13255;SDS011;37913;48.370;10.930;2023-05-13T06:28:57;94.78;;;37.28;;
13255;SDS011;37913;48.370;10.930;2023-05-13T06:31:26;93.45;;;36.95;;
13255;SDS011;37913;48.370;10.930;2023-05-13T06:33:53;85.50;;;35.20;;
13255;SDS011;37913;48.370;10.930;2023-05-13T06:36:20;87.60;;;35.45;;
13255;SDS011;37913;48.370;10.930;2023-05-13T06:38:46;100.07;;;38.20;;
13255;SDS011;37913;48.370;10.930;2023-05-13T06:41:13;77.32;;;33.60;;
13255;SDS011;37913;48.370;10.930;2023-05-13T06:43:41;83.10;;;34.63;;
13255;SDS011;37913;48.370;10.930;2023-05-13T06:46:10;72.95;;;32.72;;
13255;SDS011;37913;48.370;10.930;2023-05-13T06:48:38;71.07;;;32.45;;
13255;SDS011;37913;48.370;10.930;2023-05-13T06:51:05;82.72;;;34.65;;
13255;SDS011;37913;48.370;10.930;2023-05-13T06:53:32;85.28;;;35.30;;
13255;SDS011;37913;48.370;10.930;2023-05-13T06:55:59;77.40;;;33.83;;
13255;SDS011;37913;48.370;10.930;2023-05-13T06:58:26;78.00;;;33.80;;
13255;SDS011;37913;48.370;10.930;2023-05-13T07:00:53;90.97;;;37.13;;
13255;SDS011;37913;48.370;10.930;2023-05-13T07:03:21;77.93;;;33.83;;
13255;SDS011;37913;48.370;10.930;2023-05-13T07:05:49;75.25;;;33.40;;
13255;SDS011;37913;48.370;10.930;2023-05-13T07:08:16;82.15;;;35.22;;
13255;SDS011;37913;48.370;10.930;2023-05-13T07:10:43;92.18;;;37.10;;
13255;SDS011;37913;48.370;10.930;2023-05-13T07:13:10;87.00;;;36.38;;
13255;SDS011;37913;48.370;10.930;2023-05-13T07:15:37;76.75;;;33.80;;
13255;SDS011;37913;48.370;10.930;2023-05-13T07:18:04;84.32;;;35.30;;
13255;SDS011;37913;48.370;10.930;2023-05-13T07:20:31;85.65;;;35.85;;
13255;SDS011;37913;48.370;10.930;2023-05-13T07:22:59;90.10;;;36.78;;
13255;SDS011;37913;48.370;10.930;2023-05-13T07:25:26;82.93;;;35.08;;
13255;SDS011;37913;48.370;10.930;2023-05-13T07:27:53;81.53;;;34.72;;
13255;SDS011;37913;48.370;10.930;2023-05-13T07:30:20;80.82;;;34.65;;
13255;SDS011;37913;48.370;10.930;2023-05-13T07:32:47;83.30;;;35.05;;
13255;SDS011;37913;48.370;10.930;2023-05-13T07:35:14;79.18;;;34.35;;
13255;SDS011;37913;48.370;10.930;2023-05-13T07:37:41;92.47;;;36.88;;
13255;SDS011;37913;48.370;10.930;2023-05-13T07:40:10;81.82;;;34.85;;
13255;SDS011;37913;48.370;10.930;2023-05-13T07:42:38;90.43;;;36.53;;
13255;SDS011;37913;48.370;10.930;2023-05-13T07:45:05;99.35;;;38.38;;
13255;SDS011;37913;48.370;10.930;2023-05-13T07:47:33;83.35;;;35.05;;
13255;SDS011;37913;48.370;10.930;2023-05-13T07:50:00;87.80;;;36.00;;
13255;SDS011;37913;48.370;10.930;2023-05-13T07:52:28;79.10;;;34.38;;
13255;SDS011;37913;48.370;10.930;2023-05-13T07:54:55;93.03;;;36.75;;
13255;SDS011;37913;48.370;10.930;2023-05-13T07:57:23;87.10;;;35.72;;
13255;SDS011;37913;48.370;10.930;2023-05-13T07:59:50;86.53;;;35.50;;
13255;SDS011;37913;48.370;10.930;2023-05-13T08:02:18;88.15;;;35.72;;
13255;SDS011;37913;48.370;10.930;2023-05-13T08:04:45;89.82;;;36.03;;
13255;SDS011;37913;48.370;10.930;2023-05-13T08:07:12;85.30;;;35.65;;
13255;SDS011;37913;48.370;10.930;2023-05-13T08:09:40;95.47;;;37.72;;
13255;SDS011;37913;48.370;10.930;2023-05-13T08:12:09;83.47;;;35.17;;
13255;SDS011;37913;48.370;10.930;2023-05-13T08:14:37;81.25;;;34.67;;
13255;SDS011;37913;48.370;10.930;2023-05-13T08:17:04;75.95;;;33.83;;
13255;SDS011;37913;48.370;10.930;2023-05-13T08:19:32;83.25;;;35.55;;
13255;SDS011;37913;48.370;10.930;2023-05-13T08:21:59;77.32;;;34.72;;
13255;SDS011;37913;48.370;10.930;2023-05-13T08:24:26;82.95;;;39.30;;
13255;SDS011;37913;48.370;10.930;2023-05-13T08:26:53;79.25;;;35.90;;
13255;SDS011;37913;48.370;10.930;2023-05-13T08:29:19;84.78;;;36.50;;
13255;SDS011;37913;48.370;10.930;2023-05-13T08:31:48;88.45;;;38.13;;
13255;SDS011;37913;48.370;10.930;2023-05-13T08:34:17;79.53;;;35.65;;
13255;SDS011;37913;48.370;10.930;2023-05-13T08:36:44;74.45;;;34.63;;
13255;SDS011;37913;48.370;10.930;2023-05-13T08:39:11;79.78;;;35.65;;
13255;SDS011;37913;48.370;10.930;2023-05-13T08:41:38;82.45;;;36.00;;
13255;SDS011;37913;48.370;10.930;2023-05-13T08:44:07;78.50;;;35.63;;
13255;SDS011;37913;48.370;10.930;2023-05-13T08:46:37;89.75;;;37.28;;
13255;SDS011;37913;48.370;10.930;2023-05-13T08:49:07;83.25;;;36.47;;
13255;SDS011;37913;48.370;10.930;2023-05-13T08:51:35;87.15;;;36.38;;
13255;SDS011;37913;48.370;10.930;2023-05-13T08:54:04;82.43;;;35.20;;
13255;SDS011;37913;48.370;10.930;2023-05-13T08:56:34;93.63;;;40.15;;
13255;SDS011;37913;48.370;10.930;2023-05-13T08:59:01;86.75;;;37.83;;
13255;SDS011;37913;48.370;10.930;2023-05-13T09:01:28;94.13;;;39.17;;
13255;SDS011;37913;48.370;10.930;2023-05-13T09:03:57;83.78;;;38.30;;
13255;SDS011;37913;48.370;10.930;2023-05-13T09:06:27;93.90;;;43.03;;
13255;SDS011;37913;48.370;10.930;2023-05-13T09:08:54;104.00;;;46.00;;
13255;SDS011;37913;48.370;10.930;2023-05-13T09:11:21;105.53;;;46.10;;
13255;SDS011;37913;48.370;10.930;2023-05-13T09:13:55;92.63;;;43.35;;
13255;SDS011;37913;48.370;10.930;2023-05-13T09:16:23;105.20;;;46.10;;
13255;SDS011;37913;48.370;10.930;2023-05-13T09:18:54;82.88;;;42.17;;
13255;SDS011;37913;48.370;10.930;2023-05-13T09:21:23;110.53;;;48.20;;
13255;SDS011;37913;48.370;10.930;2023-05-13T09:23:56;98.53;;;46.20;;
13255;SDS011;37913;48.370;10.930;2023-05-13T09:26:31;93.80;;;44.20;;
13255;SDS011;37913;48.370;10.930;2023-05-13T09:29:14;84.68;;;42.10;;
13255;SDS011;37913;48.370;10.930;2023-05-13T09:31:42;92.97;;;42.83;;
13255;SDS011;37913;48.370;10.930;2023-05-13T09:34:10;97.53;;;44.20;;
13255;SDS011;37913;48.370;10.930;2023-05-13T09:36:37;93.75;;;43.08;;
13255;SDS011;37913;48.370;10.930;2023-05-13T09:39:05;107.28;;;46.40;;
13255;SDS011;37913;48.370;10.930;2023-05-13T09:41:32;88.78;;;42.33;;
13255;SDS011;37913;48.370;10.930;2023-05-13T09:44:00;89.82;;;41.67;;
13255;SDS011;37913;48.370;10.930;2023-05-13T09:46:29;97.78;;;43.10;;
13255;SDS011;37913;48.370;10.930;2023-05-13T09:48:58;90.22;;;41.75;;
13255;SDS011;37913;48.370;10.930;2023-05-13T09:51:25;85.47;;;41.03;;
13255;SDS011;37913;48.370;10.930;2023-05-13T09:53:54;83.47;;;39.83;;
13255;SDS011;37913;48.370;10.930;2023-05-13T09:56:29;95.20;;;42.53;;
13255;SDS011;37913;48.370;10.930;2023-05-13T09:58:57;101.88;;;44.50;;
13255;SDS011;37913;48.370;10.930;2023-05-13T10:01:25;96.05;;;43.47;;
13255;SDS011;37913;48.370;10.930;2023-05-13T10:03:53;97.15;;;43.60;;
13255;SDS011;37913;48.370;10.930;2023-05-13T10:06:21;99.82;;;43.95;;
13255;SDS011;37913;48.370;10.930;2023-05-13T10:08:49;96.15;;;43.67;;
13255;SDS011;37913;48.370;10.930;2023-05-13T10:11:17;100.13;;;44.17;;
13255;SDS011;37913;48.370;10.930;2023-05-13T10:13:48;79.30;;;40.33;;
13255;SDS011;37913;48.370;10.930;2023-05-13T10:16:19;112.53;;;47.03;;
13255;SDS011;37913;48.370;10.930;2023-05-13T10:18:46;92.65;;;42.70;;
13255;SDS011;37913;48.370;10.930;2023-05-13T10:21:13;99.72;;;44.45;;
13255;SDS011;37913;48.370;10.930;2023-05-13T10:23:40;204.40;;;73.40;;
13255;SDS011;37913;48.370;10.930;2023-05-13T10:26:08;96.88;;;44.28;;
13255;SDS011;37913;48.370;10.930;2023-05-13T10:28:35;91.97;;;43.22;;
13255;SDS011;37913;48.370;10.930;2023-05-13T10:31:04;87.25;;;42.72;;
13255;SDS011;37913;48.370;10.930;2023-05-13T10:33:31;93.43;;;42.88;;
13255;SDS011;37913;48.370;10.930;2023-05-13T10:36:00;91.97;;;42.78;;
13255;SDS011;37913;48.370;10.930;2023-05-13T10:38:42;85.10;;;41.03;;
13255;SDS011;37913;48.370;10.930;2023-05-13T10:41:35;103.25;;;44.03;;
13255;SDS011;37913;48.370;10.930;2023-05-13T10:44:25;99.03;;;43.58;;
13255;SDS011;37913;48.370;10.930;2023-05-13T10:46:56;99.25;;;43.92;;
13255;SDS011;37913;48.370;10.930;2023-05-13T10:49:23;91.47;;;41.97;;
13255;SDS011;37913;48.370;10.930;2023-05-13T10:52:02;94.53;;;42.90;;
13255;SDS011;37913;48.370;10.930;2023-05-13T10:54:34;86.68;;;40.97;;
13255;SDS011;37913;48.370;10.930;2023-05-13T10:57:02;93.05;;;42.30;;
13255;SDS011;37913;48.370;10.930;2023-05-13T10:59:30;98.03;;;43.10;;
13255;SDS011;37913;48.370;10.930;2023-05-13T11:02:01;87.68;;;40.65;;
13255;SDS011;37913;48.370;10.930;2023-05-13T11:04:28;93.72;;;41.92;;
13255;SDS011;37913;48.370;10.930;2023-05-13T11:06:56;84.97;;;39.80;;
13255;SDS011;37913;48.370;10.930;2023-05-13T11:09:40;119.13;;;47.10;;
13255;SDS011;37913;48.370;10.930;2023-05-13T11:12:17;88.35;;;41.53;;
13255;SDS011;37913;48.370;10.930;2023-05-13T11:14:43;101.55;;;43.10;;
13255;SDS011;37913;48.370;10.930;2023-05-13T11:17:12;88.65;;;40.92;;
13255;SDS011;37913;48.370;10.930;2023-05-13T11:19:45;91.78;;;40.78;;
13255;SDS011;37913;48.370;10.930;2023-05-13T11:22:13;92.93;;;41.75;;
13255;SDS011;37913;48.370;10.930;2023-05-13T11:24:45;108.25;;;44.58;;
13255;SDS011;37913;48.370;10.930;2023-05-13T11:27:28;94.22;;;41.33;;
13255;SDS011;37913;48.370;10.930;2023-05-13T11:30:04;91.18;;;40.95;;
13255;SDS011;37913;48.370;10.930;2023-05-13T11:32:52;85.72;;;40.38;;
13255;SDS011;37913;48.370;10.930;2023-05-13T11:35:21;92.63;;;42.20;;
13255;SDS011;37913;48.370;10.930;2023-05-13T11:37:48;87.18;;;40.45;;
13255;SDS011;37913;48.370;10.930;2023-05-13T11:40:22;91.22;;;42.78;;
13255;SDS011;37913;48.370;10.930;2023-05-13T11:42:49;84.40;;;40.35;;
13255;SDS011;37913;48.370;10.930;2023-05-13T11:45:17;90.90;;;41.85;;
13255;SDS011;37913;48.370;10.930;2023-05-13T11:47:45;81.80;;;40.40;;
13255;SDS011;37913;48.370;10.930;2023-05-13T11:50:20;95.75;;;42.75;;
13255;SDS011;37913;48.370;10.930;2023-05-13T11:52:52;89.68;;;41.55;;
13255;SDS011;37913;48.370;10.930;2023-05-13T11:55:23;93.95;;;42.80;;
13255;SDS011;37913;48.370;10.930;2023-05-13T11:57:51;87.95;;;40.72;;
13255;SDS011;37913;48.370;10.930;2023-05-13T12:00:22;95.25;;;42.47;;
13255;SDS011;37913;48.370;10.930;2023-05-13T12:02:51;95.00;;;42.28;;
13255;SDS011;37913;48.370;10.930;2023-05-13T12:05:20;89.53;;;40.75;;
13255;SDS011;37913;48.370;10.930;2023-05-13T12:07:47;77.55;;;38.35;;
13255;SDS011;37913;48.370;10.930;2023-05-13T12:10:14;87.05;;;42.80;;
13255;SDS011;37913;48.370;10.930;2023-05-13T12:12:43;78.60;;;37.63;;
13255;SDS011;37913;48.370;10.930;2023-05-13T12:15:11;87.90;;;40.20;;
13255;SDS011;37913;48.370;10.930;2023-05-13T12:17:39;86.85;;;39.78;;
13255;SDS011;37913;48.370;10.930;2023-05-13T12:20:07;88.45;;;40.33;;
13255;SDS011;37913;48.370;10.930;2023-05-13T12:22:47;94.43;;;41.53;;
13255;SDS011;37913;48.370;10.930;2023-05-13T12:28:15;94.65;;;41.97;;
13255;SDS011;37913;48.370;10.930;2023-05-13T12:30:44;83.03;;;39.13;;
13255;SDS011;37913;48.370;10.930;2023-05-13T12:33:15;85.45;;;40.22;;
13255;SDS011;37913;48.370;10.930;2023-05-13T12:35:45;88.32;;;40.83;;
13255;SDS011;37913;48.370;10.930;2023-05-13T12:38:15;92.95;;;41.85;;
13255;SDS011;37913;48.370;10.930;2023-05-13T12:40:44;90.70;;;41.55;;
13255;SDS011;37913;48.370;10.930;2023-05-13T12:43:11;93.30;;;43.20;;
13255;SDS011;37913;48.370;10.930;2023-05-13T12:45:39;93.00;;;42.42;;
13255;SDS011;37913;48.370;10.930;2023-05-13T12:48:07;84.72;;;40.60;;
13255;SDS011;37913;48.370;10.930;2023-05-13T12:50:35;84.93;;;40.72;;
13255;SDS011;37913;48.370;10.930;2023-05-13T12:53:02;89.05;;;42.10;;
13255;SDS011;37913;48.370;10.930;2023-05-13T12:55:31;90.60;;;41.78;;
13255;SDS011;37913;48.370;10.930;2023-05-13T12:58:02;91.93;;;41.78;;
13255;SDS011;37913;48.370;10.930;2023-05-13T13:00:29;86.22;;;39.95;;
13255;SDS011;37913;48.370;10.930;2023-05-13T13:02:56;87.50;;;40.47;;
13255;SDS011;37913;48.370;10.930;2023-05-13T13:05:23;98.50;;;42.75;;
13255;SDS011;37913;48.370;10.930;2023-05-13T13:07:51;95.13;;;42.15;;
13255;SDS011;37913;48.370;10.930;2023-05-13T13:10:18;91.28;;;42.97;;
13255;SDS011;37913;48.370;10.930;2023-05-13T13:12:46;90.63;;;43.15;;
13255;SDS011;37913;48.370;10.930;2023-05-13T13:15:14;82.03;;;40.47;;
13255;SDS011;37913;48.370;10.930;2023-05-13T13:17:41;90.65;;;40.53;;
13255;SDS011;37913;48.370;10.930;2023-05-13T13:20:08;88.38;;;41.00;;
13255;SDS011;37913;48.370;10.930;2023-05-13T13:22:35;99.47;;;44.08;;
13255;SDS011;37913;48.370;10.930;2023-05-13T13:25:02;98.30;;;45.40;;
13255;SDS011;37913;48.370;10.930;2023-05-13T13:27:30;84.70;;;41.28;;
13255;SDS011;37913;48.370;10.930;2023-05-13T13:29:59;89.75;;;42.13;;
13255;SDS011;37913;48.370;10.930;2023-05-13T13:32:26;99.45;;;43.28;;
13255;SDS011;37913;48.370;10.930;2023-05-13T13:34:53;97.93;;;43.10;;
13255;SDS011;37913;48.370;10.930;2023-05-13T13:37:21;90.72;;;42.85;;
13255;SDS011;37913;48.370;10.930;2023-05-13T13:39:48;91.57;;;41.63;;
13255;SDS011;37913;48.370;10.930;2023-05-13T13:42:15;77.80;;;39.05;;
13255;SDS011;37913;48.370;10.930;2023-05-13T13:44:41;85.72;;;40.92;;
13255;SDS011;37913;48.370;10.930;2023-05-13T13:47:10;85.15;;;41.20;;
13255;SDS011;37913;48.370;10.930;2023-05-13T13:49:36;94.32;;;44.00;;
13255;SDS011;37913;48.370;10.930;2023-05-13T13:52:03;89.22;;;43.17;;
13255;SDS011;37913;48.370;10.930;2023-05-13T13:54:30;106.28;;;47.13;;
13255;SDS011;37913;48.370;10.930;2023-05-13T13:56:57;91.38;;;44.28;;
13255;SDS011;37913;48.370;10.930;2023-05-13T13:59:24;93.80;;;44.75;;
13255;SDS011;37913;48.370;10.930;2023-05-13T14:01:51;96.35;;;45.40;;
13255;SDS011;37913;48.370;10.930;2023-05-13T14:04:20;99.75;;;47.85;;
13255;SDS011;37913;48.370;10.930;2023-05-13T14:06:47;90.55;;;45.42;;
13255;SDS011;37913;48.370;10.930;2023-05-13T14:09:15;93.82;;;51.50;;
13255;SDS011;37913;48.370;10.930;2023-05-13T14:11:42;93.40;;;46.63;;
13255;SDS011;37913;48.370;10.930;2023-05-13T14:14:09;91.35;;;45.47;;
13255;SDS011;37913;48.370;10.930;2023-05-13T14:16:36;89.88;;;44.65;;
13255;SDS011;37913;48.370;10.930;2023-05-13T14:19:03;84.53;;;43.45;;